Time;durP1;ratioP1;P1;durP2;ratioP2;P2;SDS_P1;SDS_P2;PMS_P1;PMS_P2;Temp;Humidity;BMP_temperature;BMP_pressure;BME280_temperature;BME280_humidity;BME280_pressure;Samples;Min_cycle;Max_cycle;Signal;HPM_P1;HPM_P2
2022/08/04 00:00:11;;;;;;;0.82;0.68;;;27.00;51.60;;;;;;5024957;28;20132;-58
2022/08/04 00:03:11;;;;;;;1.05;0.77;;;27.00;51.60;;;;;;5031670;28;20452;-55
2022/08/04 00:05:46;;;;;;;2.30;0.93;;;27.00;51.70;;;;;;5032176;28;20033;-59
2022/08/04 00:08:23;;;;;;;1.13;0.73;;;27.00;51.70;;;;;;5025098;28;20452;-57
2022/08/04 00:10:56;;;;;;;1.27;0.80;;;27.00;51.70;;;;;;5030947;28;20030;-52
2022/08/04 00:13:24;;;;;;;0.95;0.70;;;27.00;51.60;;;;;;5029375;28;20118;-58
2022/08/04 00:15:57;;;;;;;1.95;0.80;;;27.00;51.70;;;;;;5032188;28;20034;-55
2022/08/04 00:18:26;;;;;;;2.65;0.70;;;27.00;51.80;;;;;;5029872;28;20036;-56
2022/08/04 00:20:58;;;;;;;1.77;0.90;;;27.00;51.70;;;;;;5032193;28;20033;-58
2022/08/04 00:23:26;;;;;;;1.45;0.90;;;27.00;51.80;;;;;;5027351;28;20065;-55
2022/08/04 00:25:54;;;;;;;2.15;1.00;;;27.00;51.80;;;;;;5032979;28;20318;-58
2022/08/04 00:28:20;;;;;;;2.85;1.10;;;27.00;51.80;;;;;;5031076;28;20486;-56
2022/08/04 00:30:47;;;;;;;1.35;1.05;;;27.00;51.80;;;;;;5030519;28;20125;-59
2022/08/04 00:33:19;;;;;;;1.83;1.00;;;27.00;51.80;;;;;;5029704;28;20360;-54
2022/08/04 00:35:47;;;;;;;1.70;0.98;;;27.00;51.80;;;;;;5031969;28;20072;-53
2022/08/04 00:38:18;;;;;;;1.08;0.73;;;27.00;51.80;;;;;;5029604;28;20037;-58
2022/08/04 00:40:57;;;;;;;1.98;1.00;;;27.00;51.80;;;;;;5030846;28;20025;-54
2022/08/04 00:43:34;;;;;;;2.33;0.80;;;27.00;51.80;;;;;;5030078;28;20061;-57
2022/08/04 00:46:10;;;;;;;1.75;0.90;;;27.00;51.80;;;;;;5025461;28;20041;-56
2022/08/04 00:48:57;;;;;;;2.58;1.00;;;27.00;51.80;;;;;;5030980;28;20052;-58
2022/08/04 00:51:29;;;;;;;0.82;0.60;;;27.00;51.80;;;;;;5014927;28;20044;-54
2022/08/04 00:54:23;;;;;;;1.00;0.73;;;27.00;51.80;;;;;;5031271;28;20077;-56
2022/08/04 00:57:07;;;;;;;1.92;1.05;;;27.00;51.80;;;;;;5031754;28;20044;-58
2022/08/04 00:59:51;;;;;;;1.65;1.00;;;27.00;51.90;;;;;;5027957;28;20017;-53
2022/08/04 01:02:24;;;;;;;1.30;0.68;;;27.00;51.90;;;;;;5029485;28;20052;-57
2022/08/04 01:05:01;;;;;;;1.10;0.80;;;27.00;52.00;;;;;;5031158;28;20046;-55
2022/08/04 01:07:39;;;;;;;1.35;0.90;;;27.00;52.00;;;;;;5029477;28;20033;-56
2022/08/04 01:10:36;;;;;;;1.50;0.90;;;27.00;52.00;;;;;;5029462;28;20041;-56
2022/08/04 01:13:17;;;;;;;1.63;1.05;;;27.00;52.00;;;;;;5029217;28;20121;-51
2022/08/04 01:16:12;;;;;;;1.25;0.80;;;27.00;52.00;;;;;;5031077;28;20048;-58
2022/08/04 01:19:00;;;;;;;1.48;0.90;;;26.90;51.90;;;;;;5025278;28;20074;-57
2022/08/04 01:21:28;;;;;;;1.67;0.93;;;27.00;52.00;;;;;;5031425;28;20026;-57
2022/08/04 01:24:09;;;;;;;1.30;0.85;;;26.90;51.90;;;;;;5027618;28;20021;-56
2022/08/04 01:26:53;;;;;;;1.00;0.75;;;27.00;52.00;;;;;;5029533;28;20061;-56
2022/08/04 01:29:22;;;;;;;1.98;1.13;;;27.00;52.00;;;;;;5029747;28;20471;-54
2022/08/04 01:32:16;;;;;;;1.83;1.20;;;26.90;52.00;;;;;;5023391;28;20039;-58
2022/08/04 01:35:07;;;;;;;1.47;0.80;;;27.00;52.00;;;;;;5011754;28;20420;-56
2022/08/04 01:37:46;;;;;;;1.00;0.70;;;27.00;52.00;;;;;;5026655;28;20371;-53
2022/08/04 01:40:13;;;;;;;1.48;0.90;;;26.90;52.00;;;;;;5029542;28;20084;-54
2022/08/04 01:42:42;;;;;;;1.58;0.80;;;26.90;52.00;;;;;;5028635;28;20036;-54
2022/08/04 01:45:10;;;;;;;0.80;0.70;;;27.00;52.10;;;;;;5026667;28;20048;-55
2022/08/04 01:47:40;;;;;;;3.08;0.90;;;26.90;52.00;;;;;;5027700;28;20333;-57
2022/08/04 01:50:10;;;;;;;1.52;0.82;;;27.00;52.10;;;;;;5012400;28;20046;-54
2022/08/04 01:52:38;;;;;;;1.90;0.90;;;26.90;52.00;;;;;;5008876;28;20054;-59
2022/08/04 01:55:08;;;;;;;1.65;1.00;;;26.90;52.00;;;;;;5009858;28;20037;-58
2022/08/04 01:57:40;;;;;;;1.88;1.02;;;26.90;52.00;;;;;;5010069;28;20061;-57
2022/08/04 02:00:07;;;;;;;2.28;1.13;;;27.00;52.10;;;;;;5007978;28;20037;-56
2022/08/04 02:02:33;;;;;;;1.90;1.00;;;26.90;52.00;;;;;;5009037;28;20029;-56
2022/08/04 02:04:59;;;;;;;1.55;1.00;;;26.90;52.00;;;;;;5009989;28;20030;-58
2022/08/04 02:07:48;;;;;;;0.88;0.88;;;26.90;52.00;;;;;;4993544;28;20037;-55
2022/08/04 02:10:17;;;;;;;1.75;1.00;;;27.00;52.10;;;;;;5001493;28;20046;-56
2022/08/04 02:12:52;;;;;;;1.55;0.90;;;26.90;52.00;;;;;;5009815;28;20168;-59
2022/08/04 02:15:30;;;;;;;1.50;1.15;;;26.90;52.00;;;;;;5007554;28;20057;-55
2022/08/04 02:18:14;;;;;;;2.20;1.15;;;26.90;52.00;;;;;;5008388;28;20029;-54
2022/08/04 02:20:47;;;;;;;1.75;1.15;;;27.00;52.00;;;;;;5009753;28;20041;-57
2022/08/04 02:23:18;;;;;;;1.65;0.90;;;26.90;52.00;;;;;;5009793;28;20041;-55
2022/08/04 02:25:57;;;;;;;2.25;1.20;;;26.90;52.00;;;;;;5010116;28;20026;-55
2022/08/04 02:28:35;;;;;;;1.17;0.85;;;26.90;52.00;;;;;;5005838;28;20037;-55
2022/08/04 02:31:06;;;;;;;1.67;0.93;;;26.90;52.00;;;;;;5008466;28;20500;-55
2022/08/04 02:33:41;;;;;;;1.38;0.70;;;26.90;51.90;;;;;;5008261;28;20092;-55
2022/08/04 02:36:13;;;;;;;1.70;0.90;;;26.90;52.00;;;;;;5011044;28;20033;-56
2022/08/04 02:38:48;;;;;;;2.08;1.20;;;26.90;51.90;;;;;;5005663;28;20034;-54
2022/08/04 02:41:16;;;;;;;1.58;0.95;;;26.90;52.00;;;;;;5006355;28;20109;-52
2022/08/04 02:43:46;;;;;;;1.98;1.02;;;26.90;51.90;;;;;;5006231;28;20080;-56
2022/08/04 02:46:12;;;;;;;1.83;1.00;;;26.90;51.90;;;;;;5007725;28;20029;-52
2022/08/04 02:48:42;;;;;;;1.95;0.90;;;26.90;51.90;;;;;;5008940;28;20445;-57
2022/08/04 02:51:12;;;;;;;1.98;1.02;;;26.90;51.90;;;;;;5008294;28;20149;-56
2022/08/04 02:53:40;;;;;;;1.55;1.08;;;26.90;51.90;;;;;;5017793;28;20132;-52
2022/08/04 02:56:07;;;;;;;2.15;1.08;;;26.90;51.90;;;;;;5028541;28;20322;-57
2022/08/04 02:58:35;;;;;;;1.23;0.90;;;26.90;51.90;;;;;;5026158;28;20112;-58
2022/08/04 03:01:01;;;;;;;1.83;1.00;;;26.90;51.90;;;;;;5029248;28;20029;-57
2022/08/04 03:03:41;;;;;;;1.73;1.00;;;26.90;51.90;;;;;;5028098;28;20056;-56
2022/08/04 03:06:10;;;;;;;2.22;0.98;;;26.90;51.80;;;;;;5028803;28;20061;-53
2022/08/04 03:09:08;;;;;;;1.88;1.08;;;26.90;51.80;;;;;;5028926;28;20029;-54
2022/08/04 03:12:01;;;;;;;1.98;1.00;;;26.90;51.80;;;;;;5015499;28;20368;-57
2022/08/04 03:14:45;;;;;;;2.38;1.20;;;26.90;51.80;;;;;;5033072;28;20524;-55
2022/08/04 03:17:36;;;;;;;2.50;1.13;;;26.90;51.80;;;;;;5033041;28;20475;-56
2022/08/04 03:20:43;;;;;;;2.17;1.30;;;26.90;51.80;;;;;;5031756;28;20117;-54
2022/08/04 03:23:30;;;;;;;3.03;1.35;;;26.90;51.80;;;;;;5032549;28;20356;-56
2022/08/04 03:26:20;;;;;;;1.35;1.00;;;26.90;51.90;;;;;;5031386;28;20138;-52
2022/08/04 03:29:07;;;;;;;1.73;1.17;;;26.90;51.80;;;;;;5031890;28;20400;-52
2022/08/04 03:31:48;;;;;;;1.73;1.05;;;26.80;51.80;;;;;;5033179;28;20053;-56
2022/08/04 03:34:28;;;;;;;1.48;0.93;;;26.90;51.80;;;;;;5030595;28;20048;-55
2022/08/04 03:37:16;;;;;;;2.88;1.10;;;26.90;51.80;;;;;;5031400;28;20067;-54
2022/08/04 03:40:09;;;;;;;1.35;0.93;;;26.80;51.70;;;;;;5029385;28;20112;-58
2022/08/04 03:42:38;;;;;;;1.77;0.93;;;26.80;51.70;;;;;;5032656;28;20042;-52
2022/08/04 03:45:16;;;;;;;2.13;0.85;;;26.80;51.70;;;;;;5029348;28;20031;-54
2022/08/04 03:47:50;;;;;;;2.05;1.35;;;26.80;51.70;;;;;;5032140;28;20037;-55
2022/08/04 03:50:31;;;;;;;2.30;1.20;;;26.80;51.70;;;;;;5030802;28;20022;-56
2022/08/04 03:53:09;;;;;;;1.48;0.80;;;26.80;51.70;;;;;;5029800;28;20057;-54
2022/08/04 03:55:59;;;;;;;1.48;1.08;;;26.90;51.80;;;;;;5030266;28;20032;-57
2022/08/04 03:58:50;;;;;;;2.25;0.82;;;26.90;51.70;;;;;;5030840;28;20037;-56
2022/08/04 04:01:29;;;;;;;1.55;0.98;;;26.80;51.60;;;;;;5011945;28;20099;-55
2022/08/04 04:04:11;;;;;;;2.63;1.23;;;26.80;51.60;;;;;;5030397;28;20025;-53
2022/08/04 04:06:52;;;;;;;1.98;1.10;;;26.90;51.70;;;;;;5030233;28;20915;-57
2022/08/04 04:09:29;;;;;;;2.20;1.10;;;26.80;51.60;;;;;;5032649;28;20361;-50
2022/08/04 04:12:16;;;;;;;2.05;1.08;;;26.80;51.60;;;;;;5031814;28;20040;-56
2022/08/04 04:15:04;;;;;;;2.85;1.00;;;26.80;51.60;;;;;;5030377;28;20064;-55
2022/08/04 04:18:03;;;;;;;2.30;0.90;;;26.80;51.50;;;;;;5014930;28;20452;-52
2022/08/04 04:20:50;;;;;;;2.47;1.05;;;26.80;51.50;;;;;;5029779;28;20026;-56
2022/08/04 04:23:38;;;;;;;2.00;0.93;;;26.80;51.50;;;;;;5030938;28;20030;-54
2022/08/04 04:26:38;;;;;;;3.22;1.00;;;26.80;51.50;;;;;;5030147;28;20044;-57
2022/08/04 04:29:27;;;;;;;2.33;1.17;;;26.80;51.50;;;;;;5030780;28;20030;-52
2022/08/04 04:32:13;;;;;;;2.13;1.00;;;26.80;51.60;;;;;;4994711;28;20069;-57
2022/08/04 04:35:01;;;;;;;2.00;1.10;;;26.80;51.50;;;;;;5011644;28;20366;-55
2022/08/04 04:37:33;;;;;;;2.10;1.00;;;26.80;51.60;;;;;;5030302;28;20042;-58
2022/08/04 04:40:29;;;;;;;1.50;1.10;;;26.80;51.60;;;;;;5029838;28;20040;-56
2022/08/04 04:43:16;;;;;;;2.20;1.17;;;26.80;51.70;;;;;;5014653;28;20073;-55
2022/08/04 04:45:42;;;;;;;2.67;1.42;;;26.80;51.60;;;;;;5031745;28;20045;-56
2022/08/04 04:48:40;;;;;;;2.47;1.10;;;26.80;51.50;;;;;;5031008;28;20037;-49
2022/08/04 04:51:09;;;;;;;1.85;1.02;;;26.80;51.50;;;;;;5030090;28;20033;-56
2022/08/04 04:53:50;;;;;;;2.90;1.10;;;26.80;51.50;;;;;;5027963;28;20136;-54
2022/08/04 04:56:15;;;;;;;3.85;1.20;;;26.80;51.50;;;;;;5030217;28;20036;-55
2022/08/04 04:58:42;;;;;;;3.75;1.23;;;26.80;51.50;;;;;;5029872;28;20037;-59
2022/08/04 05:01:23;;;;;;;1.83;1.05;;;26.80;51.50;;;;;;5030807;28;20021;-57
2022/08/04 05:04:18;;;;;;;2.20;1.02;;;26.80;51.50;;;;;;5012089;28;20112;-55
2022/08/04 05:07:17;;;;;;;2.63;1.00;;;26.80;51.50;;;;;;4961018;28;20047;-55
2022/08/04 05:09:55;;;;;;;2.28;1.25;;;26.80;51.50;;;;;;5029492;28;20348;-51
2022/08/04 05:12:23;;;;;;;1.40;0.90;;;26.80;51.50;;;;;;5030917;28;20030;-58
2022/08/04 05:14:52;;;;;;;1.92;1.00;;;26.80;51.60;;;;;;5027068;28;20042;-55
2022/08/04 05:17:24;;;;;;;2.35;0.80;;;26.80;51.60;;;;;;5030287;28;20021;-56
2022/08/04 05:20:27;;;;;;;3.38;1.10;;;26.80;51.60;;;;;;5030106;28;20032;-57
2022/08/04 05:22:54;;;;;;;1.00;0.80;;;26.80;51.50;;;;;;5030175;28;20069;-56
2022/08/04 05:25:24;;;;;;;3.15;1.00;;;26.80;51.60;;;;;;5022039;28;20033;-55
2022/08/04 05:28:19;;;;;;;3.15;0.85;;;26.80;51.50;;;;;;5030265;28;20095;-58
2022/08/04 05:31:14;;;;;;;1.83;0.80;;;26.80;51.50;;;;;;5030050;28;20116;-55
2022/08/04 05:33:52;;;;;;;2.00;1.05;;;26.90;51.60;;;;;;5024147;28;20068;-59
2022/08/04 05:36:25;;;;;;;2.33;1.15;;;26.80;51.50;;;;;;5028688;28;20041;-55
2022/08/04 05:38:54;;;;;;;1.48;0.95;;;26.80;51.60;;;;;;5028127;28;20087;-55
2022/08/04 05:41:21;;;;;;;2.60;1.30;;;26.80;51.60;;;;;;5028141;28;20029;-57
2022/08/04 05:43:48;;;;;;;2.72;0.90;;;26.80;51.70;;;;;;5030451;28;20032;-57
2022/08/04 05:46:16;;;;;;;3.60;1.40;;;26.80;51.70;;;;;;5028599;28;20024;-52
2022/08/04 05:48:44;;;;;;;3.25;1.20;;;26.80;51.70;;;;;;5030226;28;20034;-65
2022/08/04 05:51:11;;;;;;;2.72;1.30;;;26.80;51.70;;;;;;5029560;28;20036;-54
2022/08/04 05:53:38;;;;;;;6.75;1.10;;;26.80;51.80;;;;;;5026245;28;20453;-52
2022/08/04 05:56:05;;;;;;;2.63;1.00;;;26.80;51.80;;;;;;5028244;28;20048;-48
2022/08/04 05:58:32;;;;;;;1.15;0.75;;;26.90;51.90;;;;;;5028624;28;20042;-56
2022/08/04 06:00:59;;;;;;;2.40;1.17;;;26.80;51.80;;;;;;5028563;28;20103;-55
2022/08/04 06:03:31;;;;;;;2.42;1.33;;;26.90;51.90;;;;;;5028919;28;20021;-56
2022/08/04 06:05:58;;;;;;;2.25;1.23;;;26.80;51.90;;;;;;5029224;28;20037;-57
2022/08/04 06:08:24;;;;;;;3.33;1.02;;;26.90;51.90;;;;;;5026840;28;20029;-56
2022/08/04 06:10:51;;;;;;;1.58;0.90;;;26.80;51.90;;;;;;5029028;28;20079;-55
2022/08/04 06:13:21;;;;;;;2.00;0.98;;;26.90;51.90;;;;;;5028611;28;20048;-54
2022/08/04 06:15:50;;;;;;;1.63;1.00;;;26.80;51.80;;;;;;5029256;28;20513;-56
2022/08/04 06:18:17;;;;;;;1.33;1.00;;;26.90;51.90;;;;;;5029874;28;20060;-54
2022/08/04 06:20:45;;;;;;;3.40;1.45;;;26.90;51.90;;;;;;5029983;28;20025;-55
2022/08/04 06:23:15;;;;;;;4.65;1.40;;;26.90;51.90;;;;;;5026290;28;20411;-58
2022/08/04 06:25:48;;;;;;;2.00;0.95;;;26.90;51.90;;;;;;5030142;28;20060;-53
2022/08/04 06:28:16;;;;;;;2.55;1.08;;;26.90;51.90;;;;;;5026926;28;20055;-55
2022/08/04 06:30:46;;;;;;;1.45;1.02;;;26.90;51.90;;;;;;5028825;28;20095;-53
2022/08/04 06:33:26;;;;;;;3.67;0.90;;;26.90;51.90;;;;;;5026300;28;20029;-55
2022/08/04 06:35:54;;;;;;;2.22;1.00;;;26.90;52.00;;;;;;5030752;28;20045;-53
2022/08/04 06:38:25;;;;;;;3.35;1.15;;;26.90;52.00;;;;;;5035563;28;20045;-58
2022/08/04 06:40:53;;;;;;;3.05;1.55;;;26.90;52.00;;;;;;5034165;28;20025;-53
2022/08/04 06:43:20;;;;;;;2.17;1.00;;;26.90;52.00;;;;;;5032132;28;20026;-56
2022/08/04 06:45:48;;;;;;;2.80;1.38;;;26.90;52.00;;;;;;5028824;28;20037;-57
2022/08/04 06:48:16;;;;;;;4.30;1.20;;;26.90;52.00;;;;;;5031643;28;20044;-52
2022/08/04 06:50:46;;;;;;;2.08;1.10;;;26.90;52.00;;;;;;5032120;28;20057;-54
2022/08/04 06:53:12;;;;;;;3.10;1.52;;;27.00;52.00;;;;;;5034235;28;20443;-55
2022/08/04 06:55:42;;;;;;;2.67;1.30;;;26.90;52.00;;;;;;5034028;28;20046;-55
2022/08/04 06:58:09;;;;;;;3.20;1.40;;;26.90;52.00;;;;;;5034869;28;20113;-59
2022/08/04 07:00:35;;;;;;;1.98;1.20;;;27.00;52.10;;;;;;5033239;28;20039;-54
2022/08/04 07:03:02;;;;;;;2.38;1.20;;;27.00;52.10;;;;;;5033560;28;20104;-53
2022/08/04 07:05:29;;;;;;;2.78;1.42;;;27.00;52.00;;;;;;5033700;28;20125;-54
2022/08/04 07:07:56;;;;;;;2.83;1.50;;;27.00;52.00;;;;;;5033677;28;20026;-57
2022/08/04 07:10:23;;;;;;;3.72;1.27;;;27.00;52.00;;;;;;5033431;28;20390;-56
2022/08/04 07:12:50;;;;;;;3.65;1.35;;;27.00;51.90;;;;;;5026760;28;20022;-57
2022/08/04 07:15:23;;;;;;;3.25;1.70;;;27.00;51.90;;;;;;5025559;28;20042;-58
2022/08/04 07:17:51;;;;;;;3.17;1.58;;;27.00;51.90;;;;;;5033266;28;20097;-56
2022/08/04 07:20:18;;;;;;;2.55;1.35;;;27.00;51.80;;;;;;5035278;28;20087;-56
2022/08/04 07:22:45;;;;;;;2.13;0.95;;;27.00;51.80;;;;;;5032718;28;20441;-56
2022/08/04 07:25:15;;;;;;;2.25;1.30;;;27.00;51.80;;;;;;5034691;28;20083;-54
2022/08/04 07:27:42;;;;;;;1.67;1.15;;;27.00;51.80;;;;;;5034933;28;20105;-55
2022/08/04 07:30:09;;;;;;;1.92;1.20;;;27.00;51.80;;;;;;5035069;28;20087;-55
2022/08/04 07:32:36;;;;;;;2.78;1.30;;;27.00;51.80;;;;;;5033540;28;20034;-57
2022/08/04 07:35:03;;;;;;;3.40;1.75;;;27.00;51.70;;;;;;5034243;28;20053;-57
2022/08/04 07:37:29;;;;;;;3.20;1.35;;;27.10;51.80;;;;;;5006399;28;20034;-53
2022/08/04 07:39:55;;;;;;;3.17;1.48;;;27.00;51.70;;;;;;5032011;28;20498;-56
2022/08/04 07:42:21;;;;;;;2.33;1.13;;;27.00;51.70;;;;;;5034111;28;20327;-53
2022/08/04 07:44:47;;;;;;;2.72;1.30;;;27.10;51.70;;;;;;5034437;28;20029;-57
2022/08/04 07:47:13;;;;;;;2.97;1.77;;;27.10;51.60;;;;;;5034370;28;20040;-52
2022/08/04 07:49:41;;;;;;;2.80;1.20;;;27.10;51.60;;;;;;5034807;28;20034;-55
2022/08/04 07:52:07;;;;;;;3.65;1.27;;;27.10;51.40;;;;;;5032670;28;20036;-52
2022/08/04 07:54:34;;;;;;;2.42;1.15;;;27.00;51.30;;;;;;5032639;28;20499;-57
2022/08/04 07:57:00;;;;;;;2.78;1.20;;;27.10;51.30;;;;;;5035164;28;20112;-59
2022/08/04 07:59:27;;;;;;;3.00;1.20;;;27.10;51.20;;;;;;5035500;28;20034;-57
2022/08/04 08:01:54;;;;;;;2.72;1.20;;;27.10;51.20;;;;;;5036233;28;20033;-57
2022/08/04 08:04:20;;;;;;;3.80;1.25;;;27.10;51.10;;;;;;5038002;28;20025;-53
2022/08/04 08:06:46;;;;;;;2.17;1.50;;;27.10;51.10;;;;;;5018696;28;20025;-58
2022/08/04 08:09:13;;;;;;;2.70;1.52;;;27.10;51.00;;;;;;5036309;28;20599;-58
2022/08/04 08:11:40;;;;;;;3.28;1.38;;;27.10;51.00;;;;;;5035985;28;20103;-54
2022/08/04 08:14:07;;;;;;;2.35;1.25;;;27.10;51.00;;;;;;5036998;28;20095;-52
2022/08/04 08:16:34;;;;;;;2.83;1.23;;;27.10;50.90;;;;;;5036499;28;20468;-54
2022/08/04 08:19:01;;;;;;;3.03;1.35;;;27.10;50.90;;;;;;5037653;28;20026;-54
2022/08/04 08:21:27;;;;;;;2.97;0.95;;;27.10;50.80;;;;;;5030877;28;20364;-52
2022/08/04 08:23:54;;;;;;;3.95;1.92;;;27.10;50.80;;;;;;5037001;28;20469;-56
2022/08/04 08:26:20;;;;;;;3.38;1.35;;;27.10;50.80;;;;;;5037193;28;20460;-55
2022/08/04 08:28:46;;;;;;;2.53;1.17;;;27.10;50.80;;;;;;5036953;28;20068;-57
2022/08/04 08:31:12;;;;;;;3.28;1.40;;;27.10;50.80;;;;;;5037237;28;20048;-56
2022/08/04 08:33:38;;;;;;;2.42;1.15;;;27.10;50.80;;;;;;5037183;28;20037;-52
2022/08/04 08:36:17;;;;;;;4.93;1.73;;;27.10;50.80;;;;;;5035688;28;20039;-53
2022/08/04 08:38:54;;;;;;;1.70;1.05;;;27.10;50.80;;;;;;5037194;28;20068;-55
2022/08/04 08:41:42;;;;;;;1.98;1.00;;;27.10;50.80;;;;;;5037746;28;20052;-56
2022/08/04 08:44:30;;;;;;;3.08;1.40;;;27.10;50.80;;;;;;5017707;28;20038;-52
2022/08/04 08:47:18;;;;;;;2.63;1.13;;;27.10;50.90;;;;;;5017831;28;20030;-55
2022/08/04 08:49:47;;;;;;;3.03;1.05;;;27.10;50.90;;;;;;5002549;28;20052;-56
2022/08/04 08:52:24;;;;;;;2.42;1.30;;;27.10;50.90;;;;;;5036719;28;20064;-54
2022/08/04 08:55:04;;;;;;;3.15;1.15;;;27.10;50.90;;;;;;5037108;28;20056;-57
2022/08/04 08:57:45;;;;;;;2.22;1.23;;;27.10;50.90;;;;;;5036708;28;20048;-56
2022/08/04 09:00:49;;;;;;;1.98;1.00;;;27.10;50.90;;;;;;5035476;28;20033;-56
2022/08/04 09:03:52;;;;;;;2.33;1.17;;;27.10;51.00;;;;;;4959245;28;20049;-51
2022/08/04 09:06:49;;;;;;;2.70;1.40;;;27.10;51.00;;;;;;5033433;28;20033;-55
2022/08/04 09:09:18;;;;;;;4.30;1.20;;;27.10;51.10;;;;;;5017089;28;20108;-56
2022/08/04 09:12:11;;;;;;;2.33;1.10;;;27.20;51.20;;;;;;5027578;28;20484;-52
2022/08/04 09:14:46;;;;;;;1.90;1.00;;;27.20;51.30;;;;;;5035944;28;20128;-55
2022/08/04 09:17:26;;;;;;;3.08;1.10;;;27.10;51.20;;;;;;5035576;28;20464;-56
2022/08/04 09:20:00;;;;;;;1.83;0.90;;;27.20;51.40;;;;;;5016847;28;20068;-56
2022/08/04 09:22:42;;;;;;;1.98;1.20;;;27.20;51.40;;;;;;5033032;28;20109;-55
2022/08/04 09:25:16;;;;;;;2.17;1.15;;;27.10;51.40;;;;;;5035831;28;20057;-56
2022/08/04 09:27:45;;;;;;;;;;;27.10;51.40;;;;;;5036780;28;20103;-56
2022/08/04 09:30:15;;;;;;;2.25;1.08;;;27.10;51.40;;;;;;5036232;28;20295;-55
2022/08/04 09:32:48;;;;;;;2.65;1.02;;;27.10;51.40;;;;;;5034220;28;20057;-54
2022/08/04 09:35:39;;;;;;;1.15;0.80;;;27.20;51.50;;;;;;5036282;28;20103;-57
2022/08/04 09:38:26;;;;;;;2.08;1.08;;;27.20;51.50;;;;;;5032048;28;20037;-58
2022/08/04 09:40:57;;;;;;;2.35;1.20;;;27.20;51.50;;;;;;5033510;28;20476;-55
2022/08/04 09:44:01;;;;;;;2.60;1.15;;;27.20;51.60;;;;;;5036228;28;20495;-57
2022/08/04 09:46:36;;;;;;;2.13;1.30;;;27.20;51.60;;;;;;5033148;28;20036;-55
2022/08/04 09:49:09;;;;;;;2.65;1.20;;;27.20;51.60;;;;;;5036514;28;20176;-58
2022/08/04 09:51:52;;;;;;;1.90;1.17;;;27.20;51.60;;;;;;5034525;28;20040;-53
2022/08/04 09:54:46;;;;;;;2.17;0.90;;;27.20;51.60;;;;;;5036445;28;20080;-51
2022/08/04 09:57:30;;;;;;;3.42;1.17;;;27.20;51.50;;;;;;5021221;28;20056;-56
2022/08/04 10:00:07;;;;;;;3.33;1.40;;;27.20;51.50;;;;;;5033090;28;20568;-57
2022/08/04 10:02:43;;;;;;;1.92;0.85;;;27.20;51.50;;;;;;5020434;28;20030;-54
2022/08/04 10:05:15;;;;;;;1.65;1.10;;;27.20;51.50;;;;;;5035889;28;20021;-55
2022/08/04 10:08:01;;;;;;;1.88;0.98;;;27.30;51.60;;;;;;5034066;28;20526;-58
2022/08/04 10:10:37;;;;;;;2.80;1.17;;;27.30;51.70;;;;;;5033572;28;20037;-58
2022/08/04 10:13:11;;;;;;;2.50;1.05;;;27.20;51.60;;;;;;5034332;28;20076;-56
2022/08/04 10:15:45;;;;;;;2.17;0.95;;;27.30;51.80;;;;;;5034063;28;20061;-55
2022/08/04 10:18:44;;;;;;;2.05;1.20;;;27.30;51.70;;;;;;5035381;28;20037;-56
2022/08/04 10:21:31;;;;;;;2.53;0.95;;;27.30;51.80;;;;;;5034019;28;20102;-53
2022/08/04 10:24:10;;;;;;;2.30;1.10;;;27.30;51.70;;;;;;5015620;28;20065;-56
2022/08/04 10:26:41;;;;;;;4.25;1.20;;;27.30;51.70;;;;;;5015311;28;20030;-54
2022/08/04 10:29:29;;;;;;;1.40;0.95;;;27.30;51.70;;;;;;5026460;28;20039;-58
2022/08/04 10:32:05;;;;;;;1.85;0.93;;;27.30;51.70;;;;;;5010289;28;20355;-54
2022/08/04 10:34:41;;;;;;;1.50;0.98;;;27.30;51.80;;;;;;5018954;28;20100;-58
2022/08/04 10:37:23;;;;;;;2.58;1.10;;;27.40;51.80;;;;;;5028637;28;20025;-54
2022/08/04 10:43:02;;;;;;;1.52;0.90;;;27.30;51.80;;;;;;5033254;28;20036;-57
2022/08/04 10:45:45;;;;;;;1.88;1.08;;;27.30;51.80;;;;;;5031885;28;20494;-57
2022/08/04 10:48:52;;;;;;;2.05;0.98;;;27.30;51.80;;;;;;5034187;28;20140;-56
2022/08/04 10:51:51;;;;;;;2.05;1.27;;;27.30;51.80;;;;;;4953859;29;20055;-54
2022/08/04 10:54:46;;;;;;;1.20;1.00;;;27.30;51.70;;;;;;5035151;28;20036;-54
2022/08/04 10:57:18;;;;;;;2.05;0.90;;;27.30;51.70;;;;;;5032482;28;20061;-58
2022/08/04 11:00:09;;;;;;;2.22;0.93;;;27.30;51.70;;;;;;5031317;28;20025;-59
2022/08/04 11:03:07;;;;;;;1.80;1.00;;;27.30;51.70;;;;;;5032785;28;20432;-57
2022/08/04 11:05:42;;;;;;;3.10;1.20;;;27.30;51.70;;;;;;5034823;28;20053;-53
2022/08/04 11:08:23;;;;;;;3.15;1.10;;;27.30;51.70;;;;;;5033341;28;20030;-56
2022/08/04 11:11:04;;;;;;;1.75;1.00;;;27.30;51.80;;;;;;5035099;28;20025;-57
2022/08/04 11:13:41;;;;;;;1.83;1.20;;;27.30;51.90;;;;;;5033434;28;20483;-55
2022/08/04 11:16:16;;;;;;;3.78;1.13;;;27.30;52.00;;;;;;5025803;28;20040;-57
2022/08/04 11:19:21;;;;;;;1.88;1.10;;;27.30;52.10;;;;;;5034645;28;20064;-57
2022/08/04 11:21:55;;;;;;;2.50;1.30;;;27.30;52.10;;;;;;5033642;28;20041;-53
2022/08/04 11:24:43;;;;;;;;;;;27.30;52.20;;;;;;5033127;28;20452;-56
2022/08/04 11:27:18;;;;;;;1.60;1.00;;;27.30;52.20;;;;;;5034794;28;19909;-56
2022/08/04 11:30:06;;;;;;;3.05;0.88;;;27.30;52.30;;;;;;5032842;28;20026;-54
2022/08/04 11:33:02;;;;;;;2.42;0.82;;;27.20;52.30;;;;;;5036386;28;20037;-59
2022/08/04 11:35:45;;;;;;;2.42;1.20;;;27.30;52.50;;;;;;5035884;28;20056;-52
2022/08/04 11:38:27;;;;;;;3.28;1.17;;;27.20;52.40;;;;;;5037199;28;20091;-53
2022/08/04 11:41:06;;;;;;;2.50;0.98;;;27.20;52.40;;;;;;5018709;28;20033;-58
2022/08/04 11:43:50;;;;;;;0.80;0.70;;;27.20;52.60;;;;;;5047681;28;20116;-55
2022/08/04 11:46:23;;;;;;;1.98;0.73;;;27.20;52.70;;;;;;5036814;28;20037;-57
2022/08/04 11:49:04;;;;;;;2.42;1.00;;;27.20;52.70;;;;;;5035312;28;20038;-56
2022/08/04 11:51:32;;;;;;;2.55;0.90;;;27.20;52.70;;;;;;5030959;28;20026;-53
2022/08/04 11:53:59;;;;;;;1.40;0.80;;;27.20;52.80;;;;;;5035956;28;20136;-57
2022/08/04 11:56:26;;;;;;;1.42;0.88;;;27.20;52.90;;;;;;5037827;28;20361;-55
2022/08/04 11:58:53;;;;;;;1.40;1.08;;;27.20;53.00;;;;;;5035422;28;20112;-59
2022/08/04 12:01:34;;;;;;;1.88;0.80;;;27.20;53.10;;;;;;5037838;28;20033;-53
2022/08/04 12:04:37;;;;;;;1.80;0.93;;;27.20;53.20;;;;;;5037187;28;20061;-57
2022/08/04 12:07:18;;;;;;;1.67;1.10;;;27.20;53.20;;;;;;5035535;28;20037;-56
2022/08/04 12:10:18;;;;;;;1.55;0.80;;;27.20;53.30;;;;;;5037087;28;20029;-53
2022/08/04 12:13:10;;;;;;;2.20;0.90;;;27.20;53.40;;;;;;5033410;28;20026;-56
2022/08/04 12:15:45;;;;;;;2.33;0.93;;;27.20;53.50;;;;;;5036903;28;20042;-55
2022/08/04 12:18:50;;;;;;;2.30;0.98;;;27.20;53.50;;;;;;5035772;28;20116;-57
2022/08/04 12:21:24;;;;;;;;;;;27.20;53.60;;;;;;4997760;28;20131;-54
2022/08/04 12:23:55;;;;;;;2.58;0.80;;;27.20;53.60;;;;;;5032552;28;20394;-60
2022/08/04 12:26:27;;;;;;;1.35;0.70;;;27.20;53.60;;;;;;5033291;28;20057;-57
2022/08/04 12:28:59;;;;;;;2.22;0.90;;;27.20;53.80;;;;;;5034134;28;20160;-54
2022/08/04 12:31:34;;;;;;;1.48;0.77;;;27.20;53.80;;;;;;5036740;28;20033;-55
2022/08/04 12:34:29;;;;;;;1.45;0.70;;;27.20;54.00;;;;;;5035016;28;20045;-56
2022/08/04 12:37:05;;;;;;;1.83;0.75;;;27.20;54.20;;;;;;5003200;28;20045;-57
2022/08/04 12:39:31;;;;;;;1.95;0.90;;;27.20;54.30;;;;;;5034743;28;20033;-55
2022/08/04 12:42:14;;;;;;;1.65;0.95;;;27.20;54.40;;;;;;5035566;28;20069;-53
2022/08/04 12:44:42;;;;;;;2.00;0.80;;;27.30;54.60;;;;;;5024057;28;20045;-54
2022/08/04 12:47:10;;;;;;;1.83;1.02;;;27.30;54.70;;;;;;5036509;28;20033;-53
2022/08/04 12:49:40;;;;;;;1.13;0.70;;;27.30;54.90;;;;;;5035872;28;20507;-55
2022/08/04 12:52:07;;;;;;;2.47;1.02;;;27.30;55.10;;;;;;5032674;28;20364;-56
2022/08/04 12:54:38;;;;;;;2.47;1.15;;;27.30;55.20;;;;;;5031197;28;20048;-55
2022/08/04 12:57:06;;;;;;;2.13;0.70;;;27.30;55.30;;;;;;5026589;28;20061;-57
2022/08/04 12:59:39;;;;;;;2.25;1.17;;;27.30;55.40;;;;;;5024026;28;20029;-57
2022/08/04 13:02:16;;;;;;;1.63;0.70;;;27.30;55.60;;;;;;5029845;28;20349;-55
2022/08/04 13:04:45;;;;;;;1.63;1.00;;;27.40;55.90;;;;;;5029574;28;20368;-53
2022/08/04 13:07:17;;;;;;;1.30;0.75;;;27.40;56.50;;;;;;5029278;28;20034;-54
2022/08/04 13:09:45;;;;;;;2.20;1.00;;;27.40;55.80;;;;;;5028428;28;20018;-56
2022/08/04 13:12:18;;;;;;;2.28;0.73;;;27.40;55.80;;;;;;5028835;28;20124;-50
2022/08/04 13:14:49;;;;;;;2.33;1.02;;;27.40;55.80;;;;;;5027774;28;20448;-55
2022/08/04 13:17:15;;;;;;;2.15;0.73;;;27.40;55.90;;;;;;5029195;28;20036;-56
2022/08/04 13:19:53;;;;;;;1.25;0.73;;;27.40;55.90;;;;;;5029794;28;20034;-50
2022/08/04 13:22:28;;;;;;;2.25;0.80;;;27.40;55.80;;;;;;5025408;28;20033;-53
2022/08/04 13:24:57;;;;;;;1.58;0.85;;;27.40;55.80;;;;;;5028653;28;20392;-51
2022/08/04 13:27:24;;;;;;;2.00;0.70;;;27.40;55.80;;;;;;5028247;28;20021;-56
2022/08/04 13:29:54;;;;;;;1.55;0.82;;;27.40;55.80;;;;;;5029318;28;20026;-55
2022/08/04 13:32:22;;;;;;;3.03;1.00;;;27.40;55.80;;;;;;5035816;28;20108;-52
2022/08/04 13:34:52;;;;;;;1.48;0.70;;;27.40;55.80;;;;;;5032098;28;20045;-53
2022/08/04 13:37:20;;;;;;;1.55;0.70;;;27.50;55.80;;;;;;5029711;28;20380;-53